Craryville, New York
Current Conditions -  °F | °C
As of 2:54 AM on Monday 26 Jan 2015 (Local Time) from KPSF Reporting Station
Clear Clear  
Wind Chill:   Ceiling: Unl
Heat Index:   Visibility: 10mi
Dew Point:   Wind: 3mph
Humidity: 67%   Direction: 50°NE
Pressure: 29.98"   Gusts: NA
Location:  42.17°N, 73.58°W
Report Text: KPSF 260754Z AUTO 05003KT 10SM CLR M13/M18 A2998 RMK AO2 SLP175 T11281178
Loading
Personal Weather Stations






























Interactive Weather Map New forecast layout! Learn more

10-Day Weather Forecast

Advertisements
Track Severe Weather on mobile